createdAt,value
2023-06-22T00:00:22.593Z,101953.58
2023-06-22T00:02:52.035Z,101962.83
2023-06-22T00:05:21.440Z,101959.11
2023-06-22T00:07:50.761Z,101950.12
2023-06-22T00:10:20.083Z,101951.81
2023-06-22T00:12:49.414Z,101954.02
2023-06-22T00:15:18.946Z,101953.48
2023-06-22T00:17:48.519Z,101960.47
2023-06-22T00:20:19.252Z,101962.59
2023-06-22T00:22:49.009Z,101957.75
2023-06-22T00:25:18.507Z,101954.20
2023-06-22T00:27:47.792Z,101953.72
2023-06-22T00:30:19.104Z,101955.39
2023-06-22T00:32:48.425Z,101951.94
2023-06-22T00:35:18.110Z,101954.78
2023-06-22T00:37:47.469Z,101946.01
2023-06-22T00:40:18.659Z,101944.89
2023-06-22T00:42:47.975Z,101940.47
2023-06-22T00:45:17.281Z,101936.77
2023-06-22T00:47:46.887Z,101929.72
2023-06-22T00:50:19.462Z,101937.07
2023-06-22T00:52:49.851Z,101939.03
2023-06-22T00:55:20.466Z,101941.61
2023-06-22T00:57:50.187Z,101939.28
2023-06-22T01:00:21.300Z,101933.95
2023-06-22T01:02:52.280Z,101934.29
2023-06-22T01:05:23.218Z,101939.03
2023-06-22T01:08:15.326Z,101938.73
2023-06-22T01:11:00.036Z,101945.69
2023-06-22T01:13:40.345Z,101943.09
2023-06-22T01:16:15.556Z,101941.09
2023-06-22T01:18:45.537Z,101930.81
2023-06-22T01:21:18.369Z,101936.54
2023-06-22T01:24:06.712Z,101924.45
2023-06-22T01:27:03.136Z,101923.91
2023-06-22T01:29:33.109Z,101921.50
2023-06-22T01:32:07.768Z,101917.80
2023-06-22T01:34:38.177Z,101918.33
2023-06-22T01:37:08.252Z,101924.49
2023-06-22T01:39:37.961Z,101920.16
2023-06-22T01:42:07.687Z,101925.82
2023-06-22T01:44:37.030Z,101921.83
2023-06-22T01:47:07.028Z,101922.68
2023-06-22T01:49:38.139Z,101920.46
2023-06-22T01:52:08.168Z,101916.36
2023-06-22T01:54:38.716Z,101919.91
2023-06-22T01:57:08.304Z,101915.02
2023-06-22T01:59:56.010Z,101921.72
2023-06-22T02:02:27.263Z,101923.48
2023-06-22T02:04:59.623Z,101919.50
2023-06-22T02:07:33.254Z,101921.05
2023-06-22T02:10:05.220Z,101917.69
2023-06-22T02:12:35.329Z,101920.75
2023-06-22T02:15:05.279Z,101912.77
2023-06-22T02:17:35.623Z,101914.39
2023-06-22T02:20:10.292Z,101918.42
2023-06-22T02:22:39.616Z,101916.10
2023-06-22T02:25:09.541Z,101911.81
2023-06-22T02:27:40.534Z,101903.78
2023-06-22T02:30:13.907Z,101901.83
2023-06-22T02:32:43.698Z,101895.47
2023-06-22T02:35:13.140Z,101897.13
2023-06-22T02:37:43.312Z,101901.45
2023-06-22T02:40:13.188Z,101895.95
2023-06-22T02:42:42.612Z,101905.41
2023-06-22T02:45:12.328Z,101903.30
2023-06-22T02:47:41.808Z,101900.03
2023-06-22T02:50:11.881Z,101905.28
2023-06-22T02:52:41.196Z,101911.87
2023-06-22T02:55:12.776Z,101912.64
2023-06-22T02:57:44.078Z,101910.98
2023-06-22T03:00:16.316Z,101916.64
2023-06-22T03:02:47.377Z,101908.39
2023-06-22T03:05:19.575Z,101896.98
2023-06-22T03:07:49.453Z,101887.39
2023-06-22T03:10:18.844Z,101885.21
2023-06-22T03:12:49.019Z,101877.31
2023-06-22T03:15:18.400Z,101862.33
2023-06-22T03:17:48.249Z,101868.20
2023-06-22T03:20:17.620Z,101872.75
2023-06-22T03:22:46.982Z,101865.47
2023-06-22T03:25:18.149Z,101865.61
2023-06-22T03:27:49.326Z,101869.86
2023-06-22T03:30:21.668Z,101860.84
2023-06-22T03:32:51.132Z,101855.83
2023-06-22T03:35:20.646Z,101861.09
2023-06-22T03:37:50.850Z,101869.70
2023-06-22T03:40:20.396Z,101862.62
2023-06-22T03:42:50.302Z,101867.64
2023-06-22T03:45:19.737Z,101868.68
2023-06-22T03:47:49.439Z,101870.72
2023-06-22T03:50:20.556Z,101868.47
2023-06-22T03:52:49.868Z,101868.58
2023-06-22T03:55:19.281Z,101871.53
2023-06-22T03:57:48.624Z,101862.11
2023-06-22T04:00:18.075Z,101863.00
2023-06-22T04:02:47.500Z,101861.41
2023-06-22T04:05:18.717Z,101862.98
2023-06-22T04:07:48.210Z,101862.28
2023-06-22T04:10:18.472Z,101856.34
2023-06-22T04:12:47.932Z,101856.42
2023-06-22T04:15:17.411Z,101858.53
2023-06-22T04:17:46.813Z,101856.39
2023-06-22T04:20:16.218Z,101849.97
2023-06-22T04:22:46.601Z,101849.52
2023-06-22T04:25:16.771Z,101859.91
2023-06-22T04:27:46.109Z,101864.81
2023-06-22T04:30:17.216Z,101869.91
2023-06-22T04:32:47.036Z,101869.47
2023-06-22T04:35:16.986Z,101868.03
2023-06-22T04:37:47.930Z,101865.22
2023-06-22T04:40:17.615Z,101865.13
2023-06-22T04:42:48.608Z,101872.16
2023-06-22T04:45:17.945Z,101871.38
2023-06-22T04:47:47.420Z,101872.52
2023-06-22T04:50:18.947Z,101882.75
2023-06-22T04:52:48.507Z,101875.70
2023-06-22T04:55:19.586Z,101867.75
2023-06-22T04:57:50.037Z,101873.02
2023-06-22T05:00:21.029Z,101871.86
2023-06-22T05:02:50.663Z,101862.24
2023-06-22T05:05:20.183Z,101872.19
2023-06-22T05:07:51.202Z,101869.39
2023-06-22T05:10:20.958Z,101876.24
2023-06-22T05:12:50.284Z,101879.31
2023-06-22T05:15:24.523Z,101878.20
2023-06-22T05:17:53.991Z,101876.72
2023-06-22T05:20:23.531Z,101870.36
2023-06-22T05:22:52.849Z,101852.66
2023-06-22T05:25:22.236Z,101869.30
2023-06-22T05:27:53.005Z,101876.50
2023-06-22T05:30:22.526Z,101873.25
2023-06-22T05:32:53.846Z,101873.52
2023-06-22T05:35:23.242Z,101867.55
2023-06-22T05:37:53.027Z,101868.73
2023-06-22T05:40:22.616Z,101862.64
2023-06-22T05:42:52.032Z,101857.22
2023-06-22T05:45:21.441Z,101864.91
2023-06-22T05:47:50.782Z,101870.31
2023-06-22T05:50:20.288Z,101868.81
2023-06-22T05:52:49.592Z,101871.06
2023-06-22T05:55:19.857Z,101862.55
2023-06-22T05:57:49.214Z,101857.92
2023-06-22T06:00:19.660Z,101852.70
2023-06-22T06:02:50.472Z,101856.05
2023-06-22T06:05:20.422Z,101859.09
2023-06-22T06:07:49.795Z,101858.89
2023-06-22T06:10:19.191Z,101852.83
2023-06-22T06:12:48.500Z,101849.95
2023-06-22T06:15:18.189Z,101845.62
2023-06-22T06:17:49.811Z,101840.16
2023-06-22T06:20:21.437Z,101834.83
2023-06-22T06:22:51.537Z,101846.86
2023-06-22T06:25:22.934Z,101849.39
2023-06-22T06:27:54.973Z,101847.37
2023-06-22T06:30:24.449Z,101848.19
2023-06-22T06:32:53.934Z,101835.16
2023-06-22T06:35:23.445Z,101837.33
2023-06-22T06:37:53.269Z,101840.31
2023-06-22T06:40:22.609Z,101834.78
2023-06-22T06:42:51.977Z,101829.24
2023-06-22T06:45:24.395Z,101830.19
2023-06-22T06:47:54.471Z,101839.19
2023-06-22T06:50:24.077Z,101831.23
2023-06-22T06:52:53.382Z,101828.88
2023-06-22T06:55:25.999Z,101828.39
2023-06-22T06:57:55.299Z,101832.63
2023-06-22T07:00:24.782Z,101830.71
2023-06-22T07:02:54.399Z,101836.64
2023-06-22T07:05:23.772Z,101829.06
2023-06-22T07:07:54.566Z,101829.06
2023-06-22T07:10:23.949Z,101829.34
2023-06-22T07:12:53.264Z,101831.67
2023-06-22T07:15:22.589Z,101828.02
2023-06-22T07:17:52.002Z,101826.19
2023-06-22T07:20:21.447Z,101823.69
2023-06-22T07:22:50.888Z,101825.96
2023-06-22T07:25:20.291Z,101824.56
2023-06-22T07:28:00.870Z,101828.84
2023-06-22T07:30:30.970Z,101828.84
2023-06-22T07:33:02.943Z,101827.14
2023-06-22T07:35:32.780Z,101827.14
2023-06-22T07:38:05.476Z,101827.77
2023-06-22T07:40:34.605Z,101824.02
2023-06-22T07:43:04.827Z,101816.95
2023-06-22T07:45:36.480Z,101819.72
2023-06-22T07:48:05.924Z,101813.53
2023-06-22T07:50:35.464Z,101807.80
2023-06-22T07:53:04.774Z,101811.32
2023-06-22T07:55:34.169Z,101799.56
2023-06-22T07:58:03.584Z,101794.34
2023-06-22T08:00:34.566Z,101792.87
2023-06-22T08:03:05.842Z,101781.53
2023-06-22T08:05:35.462Z,101779.00
2023-06-22T08:08:05.651Z,101776.27
2023-06-22T08:10:35.480Z,101770.52
2023-06-22T08:13:04.824Z,101771.81
2023-06-22T08:15:34.208Z,101777.63
2023-06-22T08:18:03.774Z,101773.01
2023-06-22T08:20:33.613Z,101769.64
2023-06-22T08:23:04.604Z,101754.62
2023-06-22T08:25:35.130Z,101757.16
2023-06-22T08:28:05.601Z,101755.47
2023-06-22T08:30:35.056Z,101758.42
2023-06-22T08:33:04.586Z,101754.52
2023-06-22T08:35:34.158Z,101749.14
2023-06-22T08:38:03.684Z,101752.36
2023-06-22T08:40:33.015Z,101753.05
2023-06-22T08:43:02.389Z,101755.45
2023-06-22T08:45:32.070Z,101756.98
2023-06-22T08:48:02.064Z,101761.27
2023-06-22T08:50:31.696Z,101764.65
2023-06-22T08:53:01.242Z,101770.98
2023-06-22T08:55:30.953Z,101764.78
2023-06-22T08:58:00.741Z,101762.17
2023-06-22T09:00:31.805Z,101755.34
2023-06-22T09:03:01.451Z,101752.64
2023-06-22T09:05:31.846Z,101748.05
2023-06-22T09:08:01.491Z,101749.88
2023-06-22T09:10:31.195Z,101750.28
2023-06-22T09:13:01.016Z,101757.56
2023-06-22T09:15:30.954Z,101760.23
2023-06-22T09:18:00.640Z,101763.13
2023-06-22T09:20:30.399Z,101756.15
2023-06-22T09:23:00.035Z,101755.91
2023-06-22T09:25:29.630Z,101755.15
2023-06-22T09:27:59.457Z,101750.40
2023-06-22T09:30:29.051Z,101742.50
2023-06-22T09:32:58.708Z,101731.69
2023-06-22T09:35:28.079Z,101725.05
2023-06-22T09:37:57.406Z,101728.43
2023-06-22T09:40:27.209Z,101728.13
2023-06-22T09:42:56.612Z,101723.25
2023-06-22T09:45:26.000Z,101726.97
2023-06-22T09:47:55.448Z,101729.00
2023-06-22T09:50:25.146Z,101726.97
2023-06-22T09:52:56.297Z,101732.38
2023-06-22T09:55:26.110Z,101730.98
2023-06-22T09:57:56.770Z,101725.66
2023-06-22T10:00:28.106Z,101728.53
2023-06-22T10:03:01.258Z,101732.27
2023-06-22T10:05:29.833Z,101739.61
2023-06-22T10:07:59.518Z,101735.70
2023-06-22T10:10:28.897Z,101731.94
2023-06-22T10:12:59.584Z,101733.80
2023-06-22T10:15:29.435Z,101726.77
2023-06-22T10:17:59.230Z,101730.41
2023-06-22T10:20:29.448Z,101733.78
2023-06-22T10:23:00.095Z,101731.75
2023-06-22T10:25:30.092Z,101726.04
2023-06-22T10:27:59.622Z,101730.73
2023-06-22T10:30:30.217Z,101731.65
2023-06-22T10:32:59.580Z,101730.42
2023-06-22T10:35:29.504Z,101729.84
2023-06-22T10:37:59.434Z,101736.02
2023-06-22T10:40:28.768Z,101737.44
2023-06-22T10:42:58.450Z,101735.25
2023-06-22T10:45:29.214Z,101741.16
2023-06-22T10:47:59.052Z,101738.97
2023-06-22T10:50:28.588Z,101737.55
2023-06-22T10:53:00.364Z,101738.46
2023-06-22T10:55:34.853Z,101738.72
2023-06-22T10:57:59.890Z,101747.06
2023-06-22T11:00:29.332Z,101751.36
2023-06-22T11:02:59.636Z,101745.28
2023-06-22T11:05:29.386Z,101749.49
2023-06-22T11:07:58.923Z,101744.31
2023-06-22T11:10:28.677Z,101740.08
2023-06-22T11:12:59.027Z,101733.44
2023-06-22T11:15:28.496Z,101735.83
2023-06-22T11:17:58.089Z,101735.83
2023-06-22T11:20:27.452Z,101736.72
2023-06-22T11:22:57.198Z,101744.03
2023-06-22T11:25:26.585Z,101751.83
2023-06-22T11:27:56.079Z,101751.83
2023-06-22T11:30:25.485Z,101752.59
2023-06-22T11:32:54.900Z,101752.20
2023-06-22T11:35:24.235Z,101753.73
2023-06-22T11:37:53.749Z,101745.86
2023-06-22T11:40:27.091Z,101740.16
2023-06-22T11:42:56.588Z,101735.98
2023-06-22T11:45:25.955Z,101734.16
2023-06-22T11:47:55.389Z,101732.98
2023-06-22T11:50:25.644Z,101724.14
2023-06-22T11:52:54.987Z,101714.13
2023-06-22T11:55:24.321Z,101706.63
2023-06-22T11:57:59.780Z,101706.28
2023-06-22T12:00:30.754Z,101701.94
2023-06-22T12:03:01.390Z,101698.77
2023-06-22T12:05:31.135Z,101690.42
2023-06-22T12:08:00.467Z,101694.95
2023-06-22T12:10:33.141Z,101695.77
2023-06-22T12:13:02.834Z,101694.09
2023-06-22T12:15:32.183Z,101689.77
2023-06-22T12:18:02.639Z,101690.09
2023-06-22T12:20:32.452Z,101693.94
2023-06-22T12:23:02.211Z,101685.09
2023-06-22T12:25:31.642Z,101682.09
2023-06-22T12:28:00.971Z,101681.61
2023-06-22T12:30:30.422Z,101673.73
2023-06-22T12:32:59.963Z,101671.38
2023-06-22T12:35:29.329Z,101674.75
2023-06-22T12:37:58.755Z,101672.57
2023-06-22T12:40:28.438Z,101666.25
2023-06-22T12:42:58.211Z,101666.41
2023-06-22T12:45:29.163Z,101670.44
2023-06-22T12:47:58.619Z,101662.42
2023-06-22T12:50:28.742Z,101665.91
2023-06-22T12:52:59.136Z,101665.09
2023-06-22T12:55:29.947Z,101661.91
2023-06-22T12:57:59.608Z,101669.75
2023-06-22T13:00:29.172Z,101662.76
2023-06-22T13:02:58.854Z,101661.41
2023-06-22T13:05:28.213Z,101659.08
2023-06-22T13:07:57.526Z,101655.92
2023-06-22T13:10:26.905Z,101647.89
2023-06-22T13:12:57.935Z,101650.73
2023-06-22T13:15:27.329Z,101649.06
2023-06-22T13:17:57.334Z,101645.73
2023-06-22T13:20:26.907Z,101640.05
2023-06-22T13:22:57.209Z,101635.69
2023-06-22T13:25:28.207Z,101636.36
2023-06-22T13:27:57.961Z,101633.68
2023-06-22T13:30:27.333Z,101630.02
2023-06-22T13:32:57.013Z,101633.37
2023-06-22T13:35:26.486Z,101622.86
2023-06-22T13:37:55.782Z,101628.69
2023-06-22T13:40:25.174Z,101632.05
2023-06-22T13:42:56.488Z,101635.22
2023-06-22T13:45:25.673Z,101630.56
2023-06-22T13:47:55.038Z,101624.55
2023-06-22T13:50:24.375Z,101624.36
2023-06-22T13:52:53.769Z,101625.70
2023-06-22T13:55:24.405Z,101624.86
2023-06-22T13:57:53.892Z,101621.19
2023-06-22T14:00:23.414Z,101621.84
2023-06-22T14:02:52.873Z,101625.34
2023-06-22T14:05:22.544Z,101620.67
2023-06-22T14:07:51.822Z,101621.02
2023-06-22T14:10:21.167Z,101615.34
2023-06-22T14:12:50.513Z,101617.34
2023-06-22T14:15:19.920Z,101623.55
2023-06-22T14:17:49.312Z,101624.02
2023-06-22T14:20:18.814Z,101622.88
2023-06-22T14:22:48.124Z,101621.69
2023-06-22T14:25:17.494Z,101626.39
2023-06-22T14:27:46.905Z,101636.41
2023-06-22T14:30:16.401Z,101635.73
2023-06-22T14:32:46.504Z,101637.08
2023-06-22T14:35:15.895Z,101636.23
2023-06-22T14:37:45.227Z,101640.23
2023-06-22T14:40:14.944Z,101637.08
2023-06-22T14:42:44.405Z,101638.56
2023-06-22T14:45:15.054Z,101636.69
2023-06-22T14:47:44.462Z,101625.70
2023-06-22T14:50:13.859Z,101619.68
2023-06-22T14:52:44.621Z,101618.68
2023-06-22T14:55:14.136Z,101612.02
2023-06-22T14:57:43.676Z,101609.02
2023-06-22T15:00:13.469Z,101602.67
2023-06-22T15:02:43.527Z,101605.66
2023-06-22T15:05:13.098Z,101603.01
2023-06-22T15:07:43.096Z,101600.01
2023-06-22T15:10:12.514Z,101598.00
2023-06-22T15:12:41.911Z,101600.98
2023-06-22T15:15:12.110Z,101593.50
2023-06-22T15:17:41.480Z,101589.65
2023-06-22T15:20:12.346Z,101583.31
2023-06-22T15:22:41.713Z,101584.65
2023-06-22T15:25:11.611Z,101592.64
2023-06-22T15:27:43.221Z,101593.33
2023-06-22T15:30:13.454Z,101589.50
2023-06-22T15:32:50.254Z,101591.64
2023-06-22T15:35:19.773Z,101588.65
2023-06-22T15:37:49.144Z,101581.33
2023-06-22T15:40:18.610Z,101587.81
2023-06-22T15:42:50.775Z,101589.52
2023-06-22T15:45:19.700Z,101597.84
2023-06-22T15:47:49.089Z,101597.34
2023-06-22T15:50:18.592Z,101601.84
2023-06-22T15:52:49.882Z,101602.34
2023-06-22T15:55:20.761Z,101606.52
2023-06-22T15:57:50.172Z,101610.86
2023-06-22T16:00:20.065Z,101612.66
2023-06-22T16:02:49.753Z,101616.67
2023-06-22T16:05:19.417Z,101618.31
2023-06-22T16:07:48.752Z,101619.14
2023-06-22T16:10:19.448Z,101619.28
2023-06-22T16:12:52.336Z,101612.78
2023-06-22T16:15:21.021Z,101612.91
2023-06-22T16:17:50.336Z,101611.91
2023-06-22T16:20:21.470Z,101610.25
2023-06-22T16:22:51.110Z,101605.41
2023-06-22T16:25:20.587Z,101610.55
2023-06-22T16:27:49.928Z,101607.91
2023-06-22T16:30:19.357Z,101610.22
2023-06-22T16:32:55.246Z,101607.55
2023-06-22T16:35:24.863Z,101597.86
2023-06-22T16:37:57.814Z,101597.18
2023-06-22T16:40:27.644Z,101597.50
2023-06-22T16:42:57.340Z,101600.49
2023-06-22T16:45:26.828Z,101608.84
2023-06-22T16:47:56.532Z,101606.99
2023-06-22T16:50:26.274Z,101604.49
2023-06-22T16:52:55.623Z,101604.66
2023-06-22T16:55:27.625Z,101599.64
2023-06-22T16:57:57.528Z,101603.84
2023-06-22T17:00:26.897Z,101605.33
2023-06-22T17:02:57.830Z,101601.50
2023-06-22T17:05:29.126Z,101602.83
2023-06-22T17:08:00.476Z,101596.16
2023-06-22T17:10:30.198Z,101595.61
2023-06-22T17:12:59.949Z,101592.75
2023-06-22T17:15:31.642Z,101597.59
2023-06-22T17:18:01.479Z,101607.41
2023-06-22T17:20:31.098Z,101617.69
2023-06-22T17:23:00.920Z,101629.34
2023-06-22T17:25:31.445Z,101632.01
2023-06-22T17:28:02.134Z,101642.98
2023-06-22T17:30:32.314Z,101647.30
2023-06-22T17:33:02.256Z,101641.98
2023-06-22T17:35:34.798Z,101641.33
2023-06-22T17:38:04.099Z,101633.81
2023-06-22T17:40:35.441Z,101633.81
2023-06-22T17:43:07.402Z,101631.47
2023-06-22T17:45:44.119Z,101631.95
2023-06-22T17:48:15.658Z,101640.59
2023-06-22T17:50:45.065Z,101640.73
2023-06-22T17:53:15.018Z,101640.20
2023-06-22T17:55:44.460Z,101647.01
2023-06-22T17:58:14.963Z,101645.52
2023-06-22T18:00:44.667Z,101644.20
2023-06-22T18:03:15.821Z,101646.59
2023-06-22T18:05:49.473Z,101651.81
2023-06-22T18:08:22.249Z,101650.66
2023-06-22T18:10:51.861Z,101650.71
2023-06-22T18:13:21.686Z,101642.27
2023-06-22T18:15:52.410Z,101647.13
2023-06-22T18:18:24.862Z,101648.98
2023-06-22T18:20:54.668Z,101656.00
2023-06-22T18:23:24.294Z,101658.83
2023-06-22T18:25:53.662Z,101656.98
2023-06-22T18:28:23.451Z,101655.48
2023-06-22T18:30:52.858Z,101656.48
2023-06-22T18:33:22.244Z,101660.84
2023-06-22T18:35:52.690Z,101654.84
2023-06-22T18:38:22.471Z,101656.17
2023-06-22T18:40:54.798Z,101654.51
2023-06-22T18:43:25.071Z,101653.98
2023-06-22T18:45:54.587Z,101652.81
2023-06-22T18:48:26.788Z,101650.83
2023-06-22T18:50:57.746Z,101651.16
2023-06-22T18:53:29.391Z,101656.66
2023-06-22T18:56:16.928Z,101660.81
2023-06-22T18:58:46.307Z,101660.00
2023-06-22T19:01:20.435Z,101664.00
2023-06-22T19:03:52.970Z,101665.53
2023-06-22T19:06:39.739Z,101672.35
2023-06-22T19:09:18.905Z,101677.69
2023-06-22T19:11:49.154Z,101665.86
2023-06-22T19:14:22.509Z,101669.20
2023-06-22T19:16:59.787Z,101674.05
2023-06-22T19:19:29.254Z,101673.20
2023-06-22T19:22:02.261Z,101676.36
2023-06-22T19:24:33.432Z,101681.20
2023-06-22T19:27:03.246Z,101666.55
2023-06-22T19:29:32.761Z,101661.38
2023-06-22T19:32:02.454Z,101667.15
2023-06-22T19:34:35.015Z,101679.78
2023-06-22T19:37:04.491Z,101698.16
2023-06-22T19:39:40.105Z,101707.01
2023-06-22T19:42:10.571Z,101706.52
2023-06-22T19:44:39.888Z,101699.17
2023-06-22T19:47:09.822Z,101711.00
2023-06-22T19:49:39.203Z,101706.32
2023-06-22T19:52:09.729Z,101708.98
2023-06-22T19:54:41.663Z,101712.17
2023-06-22T19:57:11.200Z,101715.48
2023-06-22T19:59:41.647Z,101717.83
2023-06-22T20:02:11.403Z,101724.33
2023-06-22T20:04:41.045Z,101728.33
2023-06-22T20:07:10.556Z,101740.65
2023-06-22T20:09:41.644Z,101742.81
2023-06-22T20:12:13.288Z,101749.97
2023-06-22T20:14:42.628Z,101752.95
2023-06-22T20:17:15.179Z,101756.95
2023-06-22T20:19:47.258Z,101756.09
2023-06-22T20:22:16.675Z,101753.22
2023-06-22T20:24:47.671Z,101752.56
2023-06-22T20:27:17.041Z,101765.05
2023-06-22T20:29:46.390Z,101762.84
2023-06-22T20:32:16.402Z,101769.41
2023-06-22T20:34:49.625Z,101771.69
2023-06-22T20:37:20.237Z,101780.78
2023-06-22T20:39:50.306Z,101773.95
2023-06-22T20:42:19.868Z,101786.20
2023-06-22T20:44:52.177Z,101787.34
2023-06-22T20:47:22.696Z,101787.78
2023-06-22T20:49:52.432Z,101794.29
2023-06-22T20:52:21.837Z,101795.84
2023-06-22T20:54:51.697Z,101789.83
2023-06-22T20:57:21.676Z,101797.13
2023-06-22T20:59:51.023Z,101794.45
2023-06-22T21:02:21.469Z,101798.27
2023-06-22T21:04:50.866Z,101794.73
2023-06-22T21:07:20.218Z,101800.91
2023-06-22T21:09:51.957Z,101803.90
2023-06-22T21:12:21.458Z,101811.34
2023-06-22T21:14:51.481Z,101807.22
2023-06-22T21:17:21.033Z,101816.87
2023-06-22T21:19:50.635Z,101814.57
2023-06-22T21:22:21.475Z,101817.87
2023-06-22T21:25:06.508Z,101815.02
2023-06-22T21:27:39.635Z,101812.00
2023-06-22T21:30:10.996Z,101817.77
2023-06-22T21:32:42.219Z,101816.55
2023-06-22T21:35:12.236Z,101825.32
2023-06-22T21:37:44.705Z,101829.61
2023-06-22T21:40:14.389Z,101835.70
2023-06-22T21:42:43.764Z,101831.57
2023-06-22T21:45:13.076Z,101833.20
2023-06-22T21:47:42.495Z,101833.78
2023-06-22T21:50:12.294Z,101830.83
2023-06-22T21:52:41.749Z,101830.50
2023-06-22T21:55:11.295Z,101835.05
2023-06-22T21:57:40.606Z,101836.86
2023-06-22T22:00:12.431Z,101837.34
2023-06-22T22:02:41.340Z,101839.11
2023-06-22T22:05:11.127Z,101835.05
2023-06-22T22:07:40.441Z,101840.00
2023-06-22T22:10:10.735Z,101841.55
2023-06-22T22:12:40.193Z,101845.69
2023-06-22T22:15:10.120Z,101845.31
2023-06-22T22:17:39.453Z,101854.48
2023-06-22T22:20:10.397Z,101852.08
2023-06-22T22:22:39.692Z,101859.34
2023-06-22T22:25:09.801Z,101855.47
2023-06-22T22:27:39.089Z,101856.79
2023-06-22T22:30:09.716Z,101862.73
2023-06-22T22:32:39.120Z,101862.41
2023-06-22T22:35:09.122Z,101871.00
2023-06-22T22:37:38.712Z,101875.70
2023-06-22T22:40:11.853Z,101878.28
2023-06-22T22:42:41.721Z,101880.94
2023-06-22T22:45:11.985Z,101876.33
2023-06-22T22:47:41.340Z,101884.59
2023-06-22T22:50:10.935Z,101891.13
2023-06-22T22:52:40.323Z,101894.94
2023-06-22T22:55:10.301Z,101897.92
2023-06-22T22:57:39.711Z,101898.92
2023-06-22T23:00:14.537Z,101901.63
2023-06-22T23:02:45.376Z,101909.89
2023-06-22T23:05:15.389Z,101924.03
2023-06-22T23:07:44.719Z,101927.25
2023-06-22T23:10:14.131Z,101923.89
2023-06-22T23:12:45.425Z,101933.00
2023-06-22T23:15:15.325Z,101934.95
2023-06-22T23:17:46.758Z,101936.62
2023-06-22T23:20:18.959Z,101944.27
2023-06-22T23:22:50.272Z,101943.36
2023-06-22T23:25:19.732Z,101944.36
2023-06-22T23:27:49.622Z,101939.86
2023-06-22T23:30:19.031Z,101943.02
2023-06-22T23:32:48.433Z,101944.98
2023-06-22T23:35:18.170Z,101954.70
2023-06-22T23:37:48.329Z,101945.69
2023-06-22T23:40:18.235Z,101941.98
2023-06-22T23:42:50.995Z,101943.59
2023-06-22T23:45:28.517Z,101935.53
2023-06-22T23:47:52.125Z,101930.64
2023-06-22T23:50:21.460Z,101934.44
2023-06-22T23:52:51.044Z,101932.25
2023-06-22T23:55:23.281Z,101936.39
2023-06-22T23:57:58.453Z,101941.84
